sensor_id;sensor_type;location;lat;lon;timestamp;P1;durP1;ratioP1;P2;durP2;ratioP2
57752;SDS011;43583;53.132;6.574;2023-04-29T00:02:18;29.98;;;16.08;;
57752;SDS011;43583;53.132;6.574;2023-04-29T00:04:44;32.22;;;16.33;;
57752;SDS011;43583;53.132;6.574;2023-04-29T00:07:09;31.77;;;15.23;;
57752;SDS011;43583;53.132;6.574;2023-04-29T00:09:39;30.70;;;16.60;;
57752;SDS011;43583;53.132;6.574;2023-04-29T00:12:05;38.20;;;17.38;;
57752;SDS011;43583;53.132;6.574;2023-04-29T00:14:30;31.83;;;17.45;;
57752;SDS011;43583;53.132;6.574;2023-04-29T00:16:56;35.92;;;15.68;;
57752;SDS011;43583;53.132;6.574;2023-04-29T00:19:22;30.83;;;16.83;;
57752;SDS011;43583;53.132;6.574;2023-04-29T00:21:48;37.55;;;17.75;;
57752;SDS011;43583;53.132;6.574;2023-04-29T00:24:14;30.80;;;16.38;;
57752;SDS011;43583;53.132;6.574;2023-04-29T00:26:40;38.05;;;17.55;;
57752;SDS011;43583;53.132;6.574;2023-04-29T00:29:05;35.38;;;17.92;;
57752;SDS011;43583;53.132;6.574;2023-04-29T00:31:31;33.75;;;16.75;;
57752;SDS011;43583;53.132;6.574;2023-04-29T00:33:57;35.15;;;17.00;;
57752;SDS011;43583;53.132;6.574;2023-04-29T00:36:25;31.13;;;16.17;;
57752;SDS011;43583;53.132;6.574;2023-04-29T00:38:51;33.88;;;16.30;;
57752;SDS011;43583;53.132;6.574;2023-04-29T00:41:17;37.17;;;16.42;;
57752;SDS011;43583;53.132;6.574;2023-04-29T00:43:42;31.67;;;16.92;;
57752;SDS011;43583;53.132;6.574;2023-04-29T00:46:08;33.88;;;15.73;;
57752;SDS011;43583;53.132;6.574;2023-04-29T00:48:34;31.73;;;15.40;;
57752;SDS011;43583;53.132;6.574;2023-04-29T00:51:00;32.75;;;16.60;;
57752;SDS011;43583;53.132;6.574;2023-04-29T00:53:26;31.02;;;16.15;;
57752;SDS011;43583;53.132;6.574;2023-04-29T00:55:52;28.40;;;13.90;;
57752;SDS011;43583;53.132;6.574;2023-04-29T00:58:18;26.00;;;14.00;;
57752;SDS011;43583;53.132;6.574;2023-04-29T01:00:44;29.13;;;14.38;;
57752;SDS011;43583;53.132;6.574;2023-04-29T01:03:17;27.42;;;14.57;;
57752;SDS011;43583;53.132;6.574;2023-04-29T01:05:44;26.10;;;14.20;;
57752;SDS011;43583;53.132;6.574;2023-04-29T01:11:34;24.50;;;11.80;;
57752;SDS011;43583;53.132;6.574;2023-04-29T01:14:06;21.95;;;11.80;;
57752;SDS011;43583;53.132;6.574;2023-04-29T01:16:50;23.67;;;11.73;;
57752;SDS011;43583;53.132;6.574;2023-04-29T01:21:48;25.10;;;11.20;;
57752;SDS011;43583;53.132;6.574;2023-04-29T01:24:17;27.50;;;11.43;;
57752;SDS011;43583;53.132;6.574;2023-04-29T01:26:45;24.17;;;12.23;;
57752;SDS011;43583;53.132;6.574;2023-04-29T01:34:41;25.13;;;10.90;;
57752;SDS011;43583;53.132;6.574;2023-04-29T01:37:27;19.17;;;10.93;;
57752;SDS011;43583;53.132;6.574;2023-04-29T01:40:08;16.73;;;10.27;;
57752;SDS011;43583;53.132;6.574;2023-04-29T01:43:02;22.05;;;10.68;;
57752;SDS011;43583;53.132;6.574;2023-04-29T01:45:27;22.73;;;10.60;;
57752;SDS011;43583;53.132;6.574;2023-04-29T01:47:54;25.05;;;10.73;;
57752;SDS011;43583;53.132;6.574;2023-04-29T01:50:22;21.10;;;10.82;;
57752;SDS011;43583;53.132;6.574;2023-04-29T01:52:48;25.88;;;10.48;;
57752;SDS011;43583;53.132;6.574;2023-04-29T01:55:14;24.08;;;11.27;;
57752;SDS011;43583;53.132;6.574;2023-04-29T01:57:39;21.15;;;10.50;;
57752;SDS011;43583;53.132;6.574;2023-04-29T02:00:05;20.63;;;10.40;;
57752;SDS011;43583;53.132;6.574;2023-04-29T02:02:33;19.13;;;10.70;;
57752;SDS011;43583;53.132;6.574;2023-04-29T02:04:58;20.85;;;11.15;;
57752;SDS011;43583;53.132;6.574;2023-04-29T02:07:24;20.77;;;11.60;;
57752;SDS011;43583;53.132;6.574;2023-04-29T02:09:50;22.05;;;11.32;;
57752;SDS011;43583;53.132;6.574;2023-04-29T02:12:15;22.13;;;10.68;;
57752;SDS011;43583;53.132;6.574;2023-04-29T02:14:41;20.35;;;11.48;;
57752;SDS011;43583;53.132;6.574;2023-04-29T02:17:06;23.75;;;11.07;;
57752;SDS011;43583;53.132;6.574;2023-04-29T02:19:32;23.48;;;12.07;;
57752;SDS011;43583;53.132;6.574;2023-04-29T02:21:58;24.00;;;11.70;;
57752;SDS011;43583;53.132;6.574;2023-04-29T02:24:24;23.73;;;11.38;;
57752;SDS011;43583;53.132;6.574;2023-04-29T02:26:49;24.42;;;12.45;;
57752;SDS011;43583;53.132;6.574;2023-04-29T02:29:15;23.23;;;11.90;;
57752;SDS011;43583;53.132;6.574;2023-04-29T02:31:41;20.33;;;11.02;;
57752;SDS011;43583;53.132;6.574;2023-04-29T02:34:07;22.10;;;11.43;;
57752;SDS011;43583;53.132;6.574;2023-04-29T02:36:32;21.15;;;10.93;;
57752;SDS011;43583;53.132;6.574;2023-04-29T02:38:58;24.55;;;11.45;;
57752;SDS011;43583;53.132;6.574;2023-04-29T02:41:24;22.33;;;11.10;;
57752;SDS011;43583;53.132;6.574;2023-04-29T02:43:50;24.70;;;11.30;;
57752;SDS011;43583;53.132;6.574;2023-04-29T02:46:16;22.45;;;12.05;;
57752;SDS011;43583;53.132;6.574;2023-04-29T02:48:43;29.10;;;13.13;;
57752;SDS011;43583;53.132;6.574;2023-04-29T02:51:08;28.52;;;13.00;;
57752;SDS011;43583;53.132;6.574;2023-04-29T02:53:34;26.98;;;12.85;;
57752;SDS011;43583;53.132;6.574;2023-04-29T02:56:00;29.67;;;12.68;;
57752;SDS011;43583;53.132;6.574;2023-04-29T02:58:25;24.05;;;12.35;;
57752;SDS011;43583;53.132;6.574;2023-04-29T03:00:51;32.05;;;12.88;;
57752;SDS011;43583;53.132;6.574;2023-04-29T03:03:17;24.50;;;12.07;;
57752;SDS011;43583;53.132;6.574;2023-04-29T03:05:43;29.02;;;14.07;;
57752;SDS011;43583;53.132;6.574;2023-04-29T03:08:08;25.00;;;11.85;;
57752;SDS011;43583;53.132;6.574;2023-04-29T03:10:34;31.27;;;14.00;;
57752;SDS011;43583;53.132;6.574;2023-04-29T03:13:00;25.65;;;12.30;;
57752;SDS011;43583;53.132;6.574;2023-04-29T03:15:26;29.23;;;13.90;;
57752;SDS011;43583;53.132;6.574;2023-04-29T03:17:52;26.35;;;13.40;;
57752;SDS011;43583;53.132;6.574;2023-04-29T03:20:17;28.58;;;13.68;;
57752;SDS011;43583;53.132;6.574;2023-04-29T03:22:43;31.20;;;14.13;;
57752;SDS011;43583;53.132;6.574;2023-04-29T03:25:09;31.60;;;13.27;;
57752;SDS011;43583;53.132;6.574;2023-04-29T03:27:34;27.58;;;12.95;;
57752;SDS011;43583;53.132;6.574;2023-04-29T03:30:00;26.95;;;13.57;;
57752;SDS011;43583;53.132;6.574;2023-04-29T03:32:26;23.88;;;13.60;;
57752;SDS011;43583;53.132;6.574;2023-04-29T03:34:52;26.88;;;13.27;;
57752;SDS011;43583;53.132;6.574;2023-04-29T03:37:19;29.17;;;12.27;;
57752;SDS011;43583;53.132;6.574;2023-04-29T03:39:44;26.35;;;12.88;;
57752;SDS011;43583;53.132;6.574;2023-04-29T03:42:10;23.65;;;12.95;;
57752;SDS011;43583;53.132;6.574;2023-04-29T03:44:36;28.88;;;12.45;;
57752;SDS011;43583;53.132;6.574;2023-04-29T03:47:01;27.05;;;12.88;;
57752;SDS011;43583;53.132;6.574;2023-04-29T03:49:27;26.33;;;13.45;;
57752;SDS011;43583;53.132;6.574;2023-04-29T03:51:53;26.30;;;11.32;;
57752;SDS011;43583;53.132;6.574;2023-04-29T03:54:18;23.90;;;10.93;;
57752;SDS011;43583;53.132;6.574;2023-04-29T03:56:44;23.17;;;10.93;;
57752;SDS011;43583;53.132;6.574;2023-04-29T03:59:10;26.38;;;11.13;;
57752;SDS011;43583;53.132;6.574;2023-04-29T04:01:35;23.83;;;12.13;;
57752;SDS011;43583;53.132;6.574;2023-04-29T04:04:01;21.35;;;11.40;;
57752;SDS011;43583;53.132;6.574;2023-04-29T04:06:26;24.80;;;12.13;;
57752;SDS011;43583;53.132;6.574;2023-04-29T04:08:52;20.50;;;11.05;;
57752;SDS011;43583;53.132;6.574;2023-04-29T04:11:18;21.95;;;10.68;;
57752;SDS011;43583;53.132;6.574;2023-04-29T04:13:43;23.27;;;10.70;;
57752;SDS011;43583;53.132;6.574;2023-04-29T04:16:09;21.63;;;9.52;;
57752;SDS011;43583;53.132;6.574;2023-04-29T04:18:35;16.33;;;9.20;;
57752;SDS011;43583;53.132;6.574;2023-04-29T04:21:09;17.92;;;8.48;;
57752;SDS011;43583;53.132;6.574;2023-04-29T04:23:35;15.52;;;8.50;;
57752;SDS011;43583;53.132;6.574;2023-04-29T04:26:04;19.90;;;7.80;;
57752;SDS011;43583;53.132;6.574;2023-04-29T04:28:30;16.73;;;7.93;;
57752;SDS011;43583;53.132;6.574;2023-04-29T04:30:55;15.45;;;8.05;;
57752;SDS011;43583;53.132;6.574;2023-04-29T04:33:21;21.23;;;9.30;;
57752;SDS011;43583;53.132;6.574;2023-04-29T04:35:47;16.08;;;7.65;;
57752;SDS011;43583;53.132;6.574;2023-04-29T04:38:13;19.70;;;8.13;;
57752;SDS011;43583;53.132;6.574;2023-04-29T04:40:42;17.77;;;7.88;;
57752;SDS011;43583;53.132;6.574;2023-04-29T04:43:08;22.88;;;8.68;;
57752;SDS011;43583;53.132;6.574;2023-04-29T04:45:34;17.10;;;8.65;;
57752;SDS011;43583;53.132;6.574;2023-04-29T04:48:00;19.38;;;8.35;;
57752;SDS011;43583;53.132;6.574;2023-04-29T04:50:26;14.68;;;7.45;;
57752;SDS011;43583;53.132;6.574;2023-04-29T04:52:56;16.52;;;8.30;;
57752;SDS011;43583;53.132;6.574;2023-04-29T04:55:22;21.90;;;8.80;;
57752;SDS011;43583;53.132;6.574;2023-04-29T04:57:48;16.48;;;8.20;;
57752;SDS011;43583;53.132;6.574;2023-04-29T05:00:13;22.02;;;8.20;;
57752;SDS011;43583;53.132;6.574;2023-04-29T05:02:39;15.90;;;6.95;;
57752;SDS011;43583;53.132;6.574;2023-04-29T05:05:05;15.40;;;7.55;;
57752;SDS011;43583;53.132;6.574;2023-04-29T05:07:31;17.05;;;8.20;;
57752;SDS011;43583;53.132;6.574;2023-04-29T05:09:59;20.38;;;8.30;;
57752;SDS011;43583;53.132;6.574;2023-04-29T05:12:29;21.63;;;8.73;;
57752;SDS011;43583;53.132;6.574;2023-04-29T05:14:55;15.27;;;8.00;;
57752;SDS011;43583;53.132;6.574;2023-04-29T05:17:21;20.85;;;8.35;;
57752;SDS011;43583;53.132;6.574;2023-04-29T05:19:47;18.63;;;8.35;;
57752;SDS011;43583;53.132;6.574;2023-04-29T05:22:13;15.07;;;8.23;;
57752;SDS011;43583;53.132;6.574;2023-04-29T05:24:38;13.70;;;7.20;;
57752;SDS011;43583;53.132;6.574;2023-04-29T05:27:04;14.93;;;6.97;;
57752;SDS011;43583;53.132;6.574;2023-04-29T05:29:29;13.13;;;6.78;;
57752;SDS011;43583;53.132;6.574;2023-04-29T05:31:55;18.33;;;8.00;;
57752;SDS011;43583;53.132;6.574;2023-04-29T05:34:21;16.02;;;7.43;;
57752;SDS011;43583;53.132;6.574;2023-04-29T05:36:47;15.32;;;7.32;;
57752;SDS011;43583;53.132;6.574;2023-04-29T05:39:12;11.38;;;6.32;;
57752;SDS011;43583;53.132;6.574;2023-04-29T05:41:41;10.95;;;5.93;;
57752;SDS011;43583;53.132;6.574;2023-04-29T05:44:09;14.45;;;6.70;;
57752;SDS011;43583;53.132;6.574;2023-04-29T05:46:35;17.63;;;7.35;;
57752;SDS011;43583;53.132;6.574;2023-04-29T05:49:01;12.13;;;6.28;;
57752;SDS011;43583;53.132;6.574;2023-04-29T05:51:27;13.23;;;6.68;;
57752;SDS011;43583;53.132;6.574;2023-04-29T05:53:53;13.38;;;6.00;;
57752;SDS011;43583;53.132;6.574;2023-04-29T05:56:19;11.02;;;5.65;;
57752;SDS011;43583;53.132;6.574;2023-04-29T05:58:44;12.68;;;6.18;;
57752;SDS011;43583;53.132;6.574;2023-04-29T06:01:10;14.40;;;5.68;;
57752;SDS011;43583;53.132;6.574;2023-04-29T06:03:36;10.60;;;5.82;;
57752;SDS011;43583;53.132;6.574;2023-04-29T06:06:01;13.82;;;5.93;;
57752;SDS011;43583;53.132;6.574;2023-04-29T06:08:28;11.23;;;5.60;;
57752;SDS011;43583;53.132;6.574;2023-04-29T06:10:53;12.38;;;5.95;;
57752;SDS011;43583;53.132;6.574;2023-04-29T06:13:19;12.23;;;5.53;;
57752;SDS011;43583;53.132;6.574;2023-04-29T06:15:48;11.32;;;6.00;;
57752;SDS011;43583;53.132;6.574;2023-04-29T06:18:14;11.48;;;5.65;;
57752;SDS011;43583;53.132;6.574;2023-04-29T06:20:40;10.90;;;5.80;;
57752;SDS011;43583;53.132;6.574;2023-04-29T06:23:05;9.50;;;5.40;;
57752;SDS011;43583;53.132;6.574;2023-04-29T06:25:31;11.18;;;5.13;;
57752;SDS011;43583;53.132;6.574;2023-04-29T06:27:57;11.07;;;5.53;;
57752;SDS011;43583;53.132;6.574;2023-04-29T06:30:22;9.05;;;4.88;;
57752;SDS011;43583;53.132;6.574;2023-04-29T06:32:48;8.73;;;4.07;;
57752;SDS011;43583;53.132;6.574;2023-04-29T06:35:14;7.88;;;4.63;;
57752;SDS011;43583;53.132;6.574;2023-04-29T06:41:13;9.45;;;4.28;;
57752;SDS011;43583;53.132;6.574;2023-04-29T06:43:38;6.85;;;3.47;;
57752;SDS011;43583;53.132;6.574;2023-04-29T06:46:07;5.70;;;3.28;;
57752;SDS011;43583;53.132;6.574;2023-04-29T06:48:32;3.88;;;3.22;;
57752;SDS011;43583;53.132;6.574;2023-04-29T06:50:58;6.28;;;3.50;;
57752;SDS011;43583;53.132;6.574;2023-04-29T06:53:24;5.20;;;3.45;;
57752;SDS011;43583;53.132;6.574;2023-04-29T06:55:50;4.47;;;3.03;;
57752;SDS011;43583;53.132;6.574;2023-04-29T06:58:16;4.95;;;2.92;;
57752;SDS011;43583;53.132;6.574;2023-04-29T07:00:46;7.45;;;3.65;;
57752;SDS011;43583;53.132;6.574;2023-04-29T07:03:14;3.30;;;2.40;;
57752;SDS011;43583;53.132;6.574;2023-04-29T07:05:40;6.80;;;3.38;;
57752;SDS011;43583;53.132;6.574;2023-04-29T07:08:07;5.25;;;3.08;;
57752;SDS011;43583;53.132;6.574;2023-04-29T07:10:34;8.95;;;3.03;;
57752;SDS011;43583;53.132;6.574;2023-04-29T07:12:59;5.30;;;3.20;;
57752;SDS011;43583;53.132;6.574;2023-04-29T07:15:25;3.58;;;2.45;;
57752;SDS011;43583;53.132;6.574;2023-04-29T07:17:51;4.32;;;3.40;;
57752;SDS011;43583;53.132;6.574;2023-04-29T07:20:17;6.18;;;3.17;;
57752;SDS011;43583;53.132;6.574;2023-04-29T07:22:43;5.10;;;3.22;;
57752;SDS011;43583;53.132;6.574;2023-04-29T07:25:09;6.25;;;3.38;;
57752;SDS011;43583;53.132;6.574;2023-04-29T07:27:35;5.22;;;3.17;;
57752;SDS011;43583;53.132;6.574;2023-04-29T07:30:01;4.82;;;3.42;;
57752;SDS011;43583;53.132;6.574;2023-04-29T07:32:27;4.40;;;2.80;;
57752;SDS011;43583;53.132;6.574;2023-04-29T07:34:52;5.03;;;3.00;;
57752;SDS011;43583;53.132;6.574;2023-04-29T07:37:18;5.72;;;2.92;;
57752;SDS011;43583;53.132;6.574;2023-04-29T07:39:44;3.20;;;2.67;;
57752;SDS011;43583;53.132;6.574;2023-04-29T07:42:10;4.75;;;3.58;;
57752;SDS011;43583;53.132;6.574;2023-04-29T07:44:35;4.00;;;2.75;;
57752;SDS011;43583;53.132;6.574;2023-04-29T07:47:01;5.55;;;2.40;;
57752;SDS011;43583;53.132;6.574;2023-04-29T07:49:27;3.33;;;2.60;;
57752;SDS011;43583;53.132;6.574;2023-04-29T07:51:52;6.53;;;2.13;;
57752;SDS011;43583;53.132;6.574;2023-04-29T07:54:18;5.55;;;2.50;;
57752;SDS011;43583;53.132;6.574;2023-04-29T07:56:47;4.22;;;2.20;;
57752;SDS011;43583;53.132;6.574;2023-04-29T07:59:12;3.92;;;1.98;;
57752;SDS011;43583;53.132;6.574;2023-04-29T08:01:41;3.30;;;1.50;;
57752;SDS011;43583;53.132;6.574;2023-04-29T08:04:07;4.70;;;1.58;;
57752;SDS011;43583;53.132;6.574;2023-04-29T08:06:33;4.68;;;1.67;;
57752;SDS011;43583;53.132;6.574;2023-04-29T08:09:00;3.75;;;1.60;;
57752;SDS011;43583;53.132;6.574;2023-04-29T08:11:25;3.47;;;1.70;;
57752;SDS011;43583;53.132;6.574;2023-04-29T08:13:52;1.98;;;1.58;;
57752;SDS011;43583;53.132;6.574;2023-04-29T08:16:18;5.53;;;1.75;;
57752;SDS011;43583;53.132;6.574;2023-04-29T08:18:45;2.67;;;1.30;;
57752;SDS011;43583;53.132;6.574;2023-04-29T08:21:11;6.40;;;2.05;;
57752;SDS011;43583;53.132;6.574;2023-04-29T08:23:37;4.18;;;1.35;;
57752;SDS011;43583;53.132;6.574;2023-04-29T08:26:03;3.10;;;1.63;;
57752;SDS011;43583;53.132;6.574;2023-04-29T08:28:29;3.85;;;1.73;;
57752;SDS011;43583;53.132;6.574;2023-04-29T08:30:54;3.63;;;1.65;;
57752;SDS011;43583;53.132;6.574;2023-04-29T08:33:20;6.68;;;1.60;;
57752;SDS011;43583;53.132;6.574;2023-04-29T08:35:46;2.97;;;1.50;;
57752;SDS011;43583;53.132;6.574;2023-04-29T08:38:12;4.32;;;1.73;;
57752;SDS011;43583;53.132;6.574;2023-04-29T08:40:41;4.45;;;1.70;;
57752;SDS011;43583;53.132;6.574;2023-04-29T08:43:08;4.13;;;2.13;;
57752;SDS011;43583;53.132;6.574;2023-04-29T08:45:35;3.10;;;2.20;;
57752;SDS011;43583;53.132;6.574;2023-04-29T08:48:05;4.43;;;2.47;;
57752;SDS011;43583;53.132;6.574;2023-04-29T08:50:32;2.60;;;1.63;;
57752;SDS011;43583;53.132;6.574;2023-04-29T08:53:09;7.68;;;1.70;;
57752;SDS011;43583;53.132;6.574;2023-04-29T08:55:38;5.07;;;2.15;;
57752;SDS011;43583;53.132;6.574;2023-04-29T08:58:08;3.67;;;2.20;;
57752;SDS011;43583;53.132;6.574;2023-04-29T09:00:35;5.05;;;1.77;;
57752;SDS011;43583;53.132;6.574;2023-04-29T09:05:44;5.50;;;2.75;;
57752;SDS011;43583;53.132;6.574;2023-04-29T09:08:14;5.32;;;1.85;;
57752;SDS011;43583;53.132;6.574;2023-04-29T09:10:41;5.95;;;1.77;;
57752;SDS011;43583;53.132;6.574;2023-04-29T09:13:06;3.42;;;1.80;;
57752;SDS011;43583;53.132;6.574;2023-04-29T09:15:36;7.60;;;2.28;;
57752;SDS011;43583;53.132;6.574;2023-04-29T09:18:04;6.63;;;2.15;;
57752;SDS011;43583;53.132;6.574;2023-04-29T09:20:30;5.53;;;2.35;;
57752;SDS011;43583;53.132;6.574;2023-04-29T09:23:00;2.58;;;1.40;;
57752;SDS011;43583;53.132;6.574;2023-04-29T09:25:28;6.47;;;2.25;;
57752;SDS011;43583;53.132;6.574;2023-04-29T09:27:54;5.78;;;2.03;;
57752;SDS011;43583;53.132;6.574;2023-04-29T09:30:20;2.45;;;1.33;;
57752;SDS011;43583;53.132;6.574;2023-04-29T09:33:08;4.10;;;1.15;;
57752;SDS011;43583;53.132;6.574;2023-04-29T09:35:33;2.80;;;1.63;;
57752;SDS011;43583;53.132;6.574;2023-04-29T09:40:36;3.35;;;1.70;;
57752;SDS011;43583;53.132;6.574;2023-04-29T09:43:02;2.70;;;1.50;;
57752;SDS011;43583;53.132;6.574;2023-04-29T09:48:22;3.85;;;1.38;;
57752;SDS011;43583;53.132;6.574;2023-04-29T09:50:59;6.80;;;1.48;;
57752;SDS011;43583;53.132;6.574;2023-04-29T09:53:28;6.25;;;1.45;;
57752;SDS011;43583;53.132;6.574;2023-04-29T09:55:59;3.60;;;1.55;;
57752;SDS011;43583;53.132;6.574;2023-04-29T09:58:30;4.82;;;1.77;;
57752;SDS011;43583;53.132;6.574;2023-04-29T10:01:01;3.83;;;1.98;;
57752;SDS011;43583;53.132;6.574;2023-04-29T10:03:31;3.88;;;2.40;;
57752;SDS011;43583;53.132;6.574;2023-04-29T10:06:01;3.70;;;1.67;;
57752;SDS011;43583;53.132;6.574;2023-04-29T10:08:29;4.20;;;1.50;;
57752;SDS011;43583;53.132;6.574;2023-04-29T10:10:59;7.68;;;2.22;;
57752;SDS011;43583;53.132;6.574;2023-04-29T10:13:26;5.40;;;2.13;;
57752;SDS011;43583;53.132;6.574;2023-04-29T10:18:40;5.95;;;1.77;;
57752;SDS011;43583;53.132;6.574;2023-04-29T10:21:12;3.47;;;1.52;;
57752;SDS011;43583;53.132;6.574;2023-04-29T10:23:38;3.35;;;1.40;;
57752;SDS011;43583;53.132;6.574;2023-04-29T10:26:06;4.20;;;1.80;;
57752;SDS011;43583;53.132;6.574;2023-04-29T10:28:36;2.42;;;0.95;;
57752;SDS011;43583;53.132;6.574;2023-04-29T10:31:03;4.88;;;1.30;;
57752;SDS011;43583;53.132;6.574;2023-04-29T10:33:31;5.30;;;2.05;;
57752;SDS011;43583;53.132;6.574;2023-04-29T10:35:58;5.70;;;1.33;;
57752;SDS011;43583;53.132;6.574;2023-04-29T10:38:27;2.72;;;1.17;;
57752;SDS011;43583;53.132;6.574;2023-04-29T10:40:57;5.15;;;1.83;;
57752;SDS011;43583;53.132;6.574;2023-04-29T10:43:26;4.82;;;1.85;;
57752;SDS011;43583;53.132;6.574;2023-04-29T10:48:43;5.63;;;1.60;;
57752;SDS011;43583;53.132;6.574;2023-04-29T10:51:09;5.50;;;1.90;;
57752;SDS011;43583;53.132;6.574;2023-04-29T10:53:35;4.50;;;2.05;;
57752;SDS011;43583;53.132;6.574;2023-04-29T10:56:20;7.05;;;1.83;;
57752;SDS011;43583;53.132;6.574;2023-04-29T10:58:46;3.33;;;1.30;;
57752;SDS011;43583;53.132;6.574;2023-04-29T11:01:12;3.40;;;1.63;;
57752;SDS011;43583;53.132;6.574;2023-04-29T11:03:46;4.75;;;0.98;;
57752;SDS011;43583;53.132;6.574;2023-04-29T11:06:21;2.15;;;0.90;;
57752;SDS011;43583;53.132;6.574;2023-04-29T11:08:58;3.92;;;1.20;;
57752;SDS011;43583;53.132;6.574;2023-04-29T11:14:11;1.75;;;0.77;;
57752;SDS011;43583;53.132;6.574;2023-04-29T11:16:45;3.33;;;0.45;;
57752;SDS011;43583;53.132;6.574;2023-04-29T11:19:19;3.22;;;0.70;;
57752;SDS011;43583;53.132;6.574;2023-04-29T11:21:45;1.52;;;0.55;;
57752;SDS011;43583;53.132;6.574;2023-04-29T11:24:11;2.80;;;0.30;;
57752;SDS011;43583;53.132;6.574;2023-04-29T11:26:39;2.03;;;0.40;;
57752;SDS011;43583;53.132;6.574;2023-04-29T11:29:05;1.75;;;0.30;;
57752;SDS011;43583;53.132;6.574;2023-04-29T11:31:34;2.97;;;0.43;;
57752;SDS011;43583;53.132;6.574;2023-04-29T11:34:02;0.47;;;0.20;;
57752;SDS011;43583;53.132;6.574;2023-04-29T11:36:28;1.98;;;0.30;;
57752;SDS011;43583;53.132;6.574;2023-04-29T11:38:56;0.77;;;0.20;;
57752;SDS011;43583;53.132;6.574;2023-04-29T11:41:23;1.77;;;0.60;;
57752;SDS011;43583;53.132;6.574;2023-04-29T11:43:56;1.45;;;0.40;;
57752;SDS011;43583;53.132;6.574;2023-04-29T11:46:23;1.88;;;0.30;;
57752;SDS011;43583;53.132;6.574;2023-04-29T11:48:49;1.67;;;0.20;;
57752;SDS011;43583;53.132;6.574;2023-04-29T11:51:15;0.70;;;0.10;;
57752;SDS011;43583;53.132;6.574;2023-04-29T11:53:42;2.30;;;0.20;;
57752;SDS011;43583;53.132;6.574;2023-04-29T11:56:08;2.47;;;0.50;;
57752;SDS011;43583;53.132;6.574;2023-04-29T11:58:35;2.67;;;0.30;;
57752;SDS011;43583;53.132;6.574;2023-04-29T12:01:01;4.75;;;0.73;;
57752;SDS011;43583;53.132;6.574;2023-04-29T12:03:28;1.95;;;0.60;;
57752;SDS011;43583;53.132;6.574;2023-04-29T12:05:56;1.48;;;0.60;;
57752;SDS011;43583;53.132;6.574;2023-04-29T12:08:22;3.00;;;0.82;;
57752;SDS011;43583;53.132;6.574;2023-04-29T12:10:50;1.90;;;0.50;;
57752;SDS011;43583;53.132;6.574;2023-04-29T12:13:17;1.27;;;0.30;;
57752;SDS011;43583;53.132;6.574;2023-04-29T12:15:47;2.08;;;0.38;;
57752;SDS011;43583;53.132;6.574;2023-04-29T12:18:14;1.60;;;0.40;;
57752;SDS011;43583;53.132;6.574;2023-04-29T12:20:41;1.75;;;0.30;;
57752;SDS011;43583;53.132;6.574;2023-04-29T12:25:40;1.52;;;0.35;;
57752;SDS011;43583;53.132;6.574;2023-04-29T12:28:12;2.85;;;0.20;;
57752;SDS011;43583;53.132;6.574;2023-04-29T12:30:38;1.55;;;0.63;;
57752;SDS011;43583;53.132;6.574;2023-04-29T12:33:09;2.55;;;0.30;;
57752;SDS011;43583;53.132;6.574;2023-04-29T12:35:35;2.85;;;0.85;;
57752;SDS011;43583;53.132;6.574;2023-04-29T12:38:01;0.95;;;0.30;;
57752;SDS011;43583;53.132;6.574;2023-04-29T12:40:27;2.05;;;0.40;;
57752;SDS011;43583;53.132;6.574;2023-04-29T12:42:53;1.10;;;0.40;;
57752;SDS011;43583;53.132;6.574;2023-04-29T12:45:28;2.53;;;0.28;;
57752;SDS011;43583;53.132;6.574;2023-04-29T12:47:55;2.92;;;0.30;;
57752;SDS011;43583;53.132;6.574;2023-04-29T12:50:31;2.45;;;0.40;;
57752;SDS011;43583;53.132;6.574;2023-04-29T12:53:05;0.68;;;0.20;;
57752;SDS011;43583;53.132;6.574;2023-04-29T12:55:32;1.45;;;0.20;;
57752;SDS011;43583;53.132;6.574;2023-04-29T12:57:59;1.63;;;0.20;;
57752;SDS011;43583;53.132;6.574;2023-04-29T13:00:29;0.93;;;0.20;;
57752;SDS011;43583;53.132;6.574;2023-04-29T13:02:56;0.65;;;0.22;;
57752;SDS011;43583;53.132;6.574;2023-04-29T13:05:21;2.55;;;0.30;;
57752;SDS011;43583;53.132;6.574;2023-04-29T13:07:47;2.88;;;0.20;;
57752;SDS011;43583;53.132;6.574;2023-04-29T13:10:13;2.55;;;0.43;;
57752;SDS011;43583;53.132;6.574;2023-04-29T13:12:40;1.60;;;0.30;;
57752;SDS011;43583;53.132;6.574;2023-04-29T13:15:06;3.03;;;0.50;;
57752;SDS011;43583;53.132;6.574;2023-04-29T13:17:36;3.10;;;0.50;;
57752;SDS011;43583;53.132;6.574;2023-04-29T13:20:02;1.55;;;0.20;;
57752;SDS011;43583;53.132;6.574;2023-04-29T13:22:28;1.77;;;0.43;;
57752;SDS011;43583;53.132;6.574;2023-04-29T13:24:54;1.00;;;0.20;;
57752;SDS011;43583;53.132;6.574;2023-04-29T13:27:20;0.93;;;0.20;;
57752;SDS011;43583;53.132;6.574;2023-04-29T13:29:45;0.65;;;0.20;;
57752;SDS011;43583;53.132;6.574;2023-04-29T13:32:11;0.85;;;0.20;;
57752;SDS011;43583;53.132;6.574;2023-04-29T13:34:36;1.08;;;0.10;;
57752;SDS011;43583;53.132;6.574;2023-04-29T13:37:02;0.95;;;0.20;;
57752;SDS011;43583;53.132;6.574;2023-04-29T13:39:27;2.22;;;0.50;;
57752;SDS011;43583;53.132;6.574;2023-04-29T13:41:53;2.50;;;0.30;;
57752;SDS011;43583;53.132;6.574;2023-04-29T13:44:18;2.55;;;0.77;;
57752;SDS011;43583;53.132;6.574;2023-04-29T13:46:44;1.90;;;0.50;;
57752;SDS011;43583;53.132;6.574;2023-04-29T13:49:10;2.40;;;0.50;;
57752;SDS011;43583;53.132;6.574;2023-04-29T13:51:36;1.40;;;0.70;;
57752;SDS011;43583;53.132;6.574;2023-04-29T13:54:01;2.20;;;0.95;;
57752;SDS011;43583;53.132;6.574;2023-04-29T13:56:27;2.83;;;1.45;;
57752;SDS011;43583;53.132;6.574;2023-04-29T13:58:53;2.40;;;1.10;;
57752;SDS011;43583;53.132;6.574;2023-04-29T14:01:18;4.82;;;1.33;;
57752;SDS011;43583;53.132;6.574;2023-04-29T14:03:46;3.97;;;1.27;;
57752;SDS011;43583;53.132;6.574;2023-04-29T14:06:11;2.45;;;1.38;;
57752;SDS011;43583;53.132;6.574;2023-04-29T14:08:37;4.32;;;1.73;;
57752;SDS011;43583;53.132;6.574;2023-04-29T14:11:02;2.95;;;1.70;;
57752;SDS011;43583;53.132;6.574;2023-04-29T14:13:29;3.20;;;1.45;;
57752;SDS011;43583;53.132;6.574;2023-04-29T14:15:55;5.72;;;2.42;;
57752;SDS011;43583;53.132;6.574;2023-04-29T14:18:20;5.63;;;2.40;;
57752;SDS011;43583;53.132;6.574;2023-04-29T14:20:46;4.57;;;2.38;;
57752;SDS011;43583;53.132;6.574;2023-04-29T14:23:11;5.63;;;2.55;;
57752;SDS011;43583;53.132;6.574;2023-04-29T14:25:37;3.92;;;2.45;;
57752;SDS011;43583;53.132;6.574;2023-04-29T14:28:03;6.85;;;2.33;;
57752;SDS011;43583;53.132;6.574;2023-04-29T14:30:28;4.53;;;1.10;;
57752;SDS011;43583;53.132;6.574;2023-04-29T14:32:54;5.43;;;1.98;;
57752;SDS011;43583;53.132;6.574;2023-04-29T14:35:20;3.47;;;1.70;;
57752;SDS011;43583;53.132;6.574;2023-04-29T14:37:45;5.80;;;1.95;;
57752;SDS011;43583;53.132;6.574;2023-04-29T14:40:11;2.75;;;1.48;;
57752;SDS011;43583;53.132;6.574;2023-04-29T14:42:37;4.50;;;1.35;;
57752;SDS011;43583;53.132;6.574;2023-04-29T14:45:02;3.13;;;0.88;;
57752;SDS011;43583;53.132;6.574;2023-04-29T14:47:28;3.25;;;1.25;;
57752;SDS011;43583;53.132;6.574;2023-04-29T14:49:54;5.10;;;1.52;;
57752;SDS011;43583;53.132;6.574;2023-04-29T14:52:20;3.55;;;1.38;;
57752;SDS011;43583;53.132;6.574;2023-04-29T14:54:45;3.97;;;1.15;;
57752;SDS011;43583;53.132;6.574;2023-04-29T14:57:11;3.55;;;1.20;;
57752;SDS011;43583;53.132;6.574;2023-04-29T14:59:36;1.50;;;0.85;;
57752;SDS011;43583;53.132;6.574;2023-04-29T15:02:02;1.23;;;0.47;;
57752;SDS011;43583;53.132;6.574;2023-04-29T15:04:27;3.60;;;0.63;;
57752;SDS011;43583;53.132;6.574;2023-04-29T15:06:53;3.15;;;0.60;;
57752;SDS011;43583;53.132;6.574;2023-04-29T15:09:21;2.28;;;0.60;;
57752;SDS011;43583;53.132;6.574;2023-04-29T15:11:47;2.85;;;1.00;;